เยรูซาเลม, ประเทศอิสราเอล

03:06 AM IST วัน พฤศจิกายน 28, 2014 (GMT +0200)
IISRAELG2 | Change Station
CLOSE
Current Station
Personal Weather Stations
Location: Givat Zeev, ISRAEL
Elevation: 2543 ft
Nearby Weather Stations

Elev 2543 ft 31.86 °N, 35.16 °E | Updated 2 minutes ago

Rain
ฝนตก
46.9 ฟาเรนไฮน์
Feels Like 47 ฟาเรนไฮน์
N
0.0
ลม ความผันแปร ลม from ทางทิศตะวันออกและทิศตะวันออกเฉียงเหนือ
Gusts 1.0 mph

วันนี้
High -- | Low -- ฟาเรนไฮน์
--% Chance of Precip.
Yesterday
High -- | Low -- ฟาเรนไฮน์
Precip. -- นิ้ว
6:18 AM 4:35 PM
เดือนเสี้ยว, 34% visible
ความดัน 30.15 นิ้ว
ทัศนวิสัย 6.2 ไมล์
เมฆ มีเมฆคลุมเป็นบางส่วน 4500 ft
ลมหนาว 47 ฟาเรนไฮน์
อุณหภูมิที่อากาศอาจจับตัวเป็นหยาดน้ำค้าง 47 ฟาเรนไฮน์
ความชื้น 100%
Rainfall 0.00 นิ้ว
Snow Depth Not available.
UV out of 12
Pollen Not available.
Air Quality Not available.
Flu Activity Not available.
METAR LLBG 280050Z 06005KT 9999 SCT045 12/10 Q1021 NOSIG

More Conditions Fewer Conditions

ความดัน 30.15 นิ้ว
ทัศนวิสัย 6.2 ไมล์
เมฆ มีเมฆคลุมเป็นบางส่วน 4500 ft
ลมหนาว 47 ฟาเรนไฮน์
อุณหภูมิที่อากาศอาจจับตัวเป็นหยาดน้ำค้าง 47 ฟาเรนไฮน์
ความชื้น 100%
Rainfall 0.00 นิ้ว
Snow Depth Not available.
UV out of 12
Pollen Not available.
Air Quality Not available.
Flu Activity Not available.
METAR LLBG 280050Z 06005KT 9999 SCT045 12/10 Q1021 NOSIG

More Conditions Fewer Conditions

10-Day Weather Forecast

Almanac

ดาราศาสตร์

Nov. 28, 2014 Rise Set
Actual Time
Civil Twilight
Nautical Twilight
Astronomical Twilight
Moon
Length Of Visible Light
ความยาวของวัน
Tomorrow will be .
, % of the Moon is Illuminated

Today's Extremes

Country Highs Country Lows

Community

WunderPhotos

Upload Photos

1,774,148 photos uploaded!

WunderBlogs® & News

Nearby

Air Quality

  Air Quality AQ Index Pollutant
Not available.

Snow Depth

Station Depth Elevation

Earthquake Activity

City Distance Mag. Time & Date
Minimum magnitude displayed is 2.5.

Coastal Water Temperatures

สถานที่ อุณหภูมิ

Nearby Weather Stations